sensor_id;sensor_type;location;lat;lon;timestamp;P1;durP1;ratioP1;P2;durP2;ratioP2
47337;SDS011;33069;51.970;5.892;2023-05-14T00:01:01;20.92;;;16.27;;
47337;SDS011;33069;51.970;5.892;2023-05-14T00:03:27;22.90;;;16.58;;
47337;SDS011;33069;51.970;5.892;2023-05-14T00:05:53;23.60;;;17.08;;
47337;SDS011;33069;51.970;5.892;2023-05-14T00:08:19;18.52;;;15.63;;
47337;SDS011;33069;51.970;5.892;2023-05-14T00:10:44;19.05;;;15.73;;
47337;SDS011;33069;51.970;5.892;2023-05-14T00:13:10;19.33;;;17.27;;
47337;SDS011;33069;51.970;5.892;2023-05-14T00:15:36;18.70;;;16.80;;
47337;SDS011;33069;51.970;5.892;2023-05-14T00:18:01;19.13;;;15.80;;
47337;SDS011;33069;51.970;5.892;2023-05-14T00:20:27;20.23;;;16.63;;
47337;SDS011;33069;51.970;5.892;2023-05-14T00:22:53;24.10;;;17.27;;
47337;SDS011;33069;51.970;5.892;2023-05-14T00:25:18;22.85;;;17.63;;
47337;SDS011;33069;51.970;5.892;2023-05-14T00:27:44;22.48;;;17.23;;
47337;SDS011;33069;51.970;5.892;2023-05-14T00:30:10;23.75;;;16.73;;
47337;SDS011;33069;51.970;5.892;2023-05-14T00:32:36;19.98;;;16.92;;
47337;SDS011;33069;51.970;5.892;2023-05-14T00:35:02;20.73;;;16.98;;
47337;SDS011;33069;51.970;5.892;2023-05-14T00:37:28;24.52;;;17.60;;
47337;SDS011;33069;51.970;5.892;2023-05-14T00:39:54;26.25;;;17.23;;
47337;SDS011;33069;51.970;5.892;2023-05-14T00:42:19;25.27;;;16.77;;
47337;SDS011;33069;51.970;5.892;2023-05-14T00:44:45;23.98;;;19.08;;
47337;SDS011;33069;51.970;5.892;2023-05-14T00:47:11;20.15;;;17.92;;
47337;SDS011;33069;51.970;5.892;2023-05-14T00:49:37;18.75;;;16.67;;
47337;SDS011;33069;51.970;5.892;2023-05-14T00:52:04;27.38;;;18.38;;
47337;SDS011;33069;51.970;5.892;2023-05-14T00:54:30;21.88;;;17.00;;
47337;SDS011;33069;51.970;5.892;2023-05-14T00:56:57;23.05;;;17.58;;
47337;SDS011;33069;51.970;5.892;2023-05-14T00:59:23;18.45;;;16.15;;
47337;SDS011;33069;51.970;5.892;2023-05-14T01:01:50;20.90;;;17.40;;
47337;SDS011;33069;51.970;5.892;2023-05-14T01:04:15;26.52;;;17.95;;
47337;SDS011;33069;51.970;5.892;2023-05-14T01:09:27;26.90;;;17.73;;
47337;SDS011;33069;51.970;5.892;2023-05-14T01:12:10;21.80;;;18.45;;
47337;SDS011;33069;51.970;5.892;2023-05-14T01:14:55;23.05;;;17.20;;
47337;SDS011;33069;51.970;5.892;2023-05-14T01:17:37;20.42;;;17.20;;
47337;SDS011;33069;51.970;5.892;2023-05-14T01:20:07;22.65;;;17.45;;
47337;SDS011;33069;51.970;5.892;2023-05-14T01:22:33;23.50;;;18.17;;
47337;SDS011;33069;51.970;5.892;2023-05-14T01:24:59;27.30;;;17.55;;
47337;SDS011;33069;51.970;5.892;2023-05-14T01:27:29;23.33;;;16.67;;
47337;SDS011;33069;51.970;5.892;2023-05-14T01:30:08;33.95;;;26.08;;
47337;SDS011;33069;51.970;5.892;2023-05-14T01:32:36;24.38;;;19.70;;
47337;SDS011;33069;51.970;5.892;2023-05-14T01:35:04;29.40;;;20.92;;
47337;SDS011;33069;51.970;5.892;2023-05-14T01:37:32;27.75;;;19.85;;
47337;SDS011;33069;51.970;5.892;2023-05-14T01:39:59;33.15;;;26.23;;
47337;SDS011;33069;51.970;5.892;2023-05-14T01:42:25;21.95;;;17.13;;
47337;SDS011;33069;51.970;5.892;2023-05-14T01:44:52;44.60;;;29.50;;
47337;SDS011;33069;51.970;5.892;2023-05-14T01:47:18;21.73;;;19.42;;
47337;SDS011;33069;51.970;5.892;2023-05-14T01:49:44;41.50;;;31.35;;
47337;SDS011;33069;51.970;5.892;2023-05-14T01:52:10;37.83;;;27.23;;
47337;SDS011;33069;51.970;5.892;2023-05-14T01:54:36;33.70;;;25.30;;
47337;SDS011;33069;51.970;5.892;2023-05-14T01:57:01;53.15;;;34.40;;
47337;SDS011;33069;51.970;5.892;2023-05-14T01:59:27;25.67;;;19.85;;
47337;SDS011;33069;51.970;5.892;2023-05-14T02:01:54;39.97;;;30.55;;
47337;SDS011;33069;51.970;5.892;2023-05-14T02:04:20;46.58;;;31.77;;
47337;SDS011;33069;51.970;5.892;2023-05-14T02:06:45;24.20;;;19.58;;
47337;SDS011;33069;51.970;5.892;2023-05-14T02:09:11;26.35;;;21.40;;
47337;SDS011;33069;51.970;5.892;2023-05-14T02:11:37;33.00;;;22.98;;
47337;SDS011;33069;51.970;5.892;2023-05-14T02:14:02;50.15;;;34.38;;
47337;SDS011;33069;51.970;5.892;2023-05-14T02:16:28;36.83;;;28.92;;
47337;SDS011;33069;51.970;5.892;2023-05-14T02:18:54;31.67;;;22.10;;
47337;SDS011;33069;51.970;5.892;2023-05-14T02:21:19;37.10;;;26.60;;
47337;SDS011;33069;51.970;5.892;2023-05-14T02:23:46;26.17;;;20.27;;
47337;SDS011;33069;51.970;5.892;2023-05-14T02:26:13;25.45;;;19.77;;
47337;SDS011;33069;51.970;5.892;2023-05-14T02:28:39;26.30;;;20.30;;
47337;SDS011;33069;51.970;5.892;2023-05-14T02:31:04;34.90;;;22.88;;
47337;SDS011;33069;51.970;5.892;2023-05-14T02:33:30;41.20;;;28.40;;
47337;SDS011;33069;51.970;5.892;2023-05-14T02:35:56;29.45;;;23.60;;
47337;SDS011;33069;51.970;5.892;2023-05-14T02:38:22;27.65;;;23.30;;
47337;SDS011;33069;51.970;5.892;2023-05-14T02:40:48;33.15;;;24.00;;
47337;SDS011;33069;51.970;5.892;2023-05-14T02:43:13;30.20;;;20.52;;
47337;SDS011;33069;51.970;5.892;2023-05-14T02:45:39;27.73;;;21.23;;
47337;SDS011;33069;51.970;5.892;2023-05-14T02:48:05;45.88;;;33.17;;
47337;SDS011;33069;51.970;5.892;2023-05-14T02:50:30;34.05;;;24.98;;
47337;SDS011;33069;51.970;5.892;2023-05-14T02:52:56;40.72;;;27.73;;
47337;SDS011;33069;51.970;5.892;2023-05-14T02:55:22;31.50;;;25.50;;
47337;SDS011;33069;51.970;5.892;2023-05-14T02:57:50;30.00;;;24.83;;
47337;SDS011;33069;51.970;5.892;2023-05-14T03:00:17;32.20;;;26.65;;
47337;SDS011;33069;51.970;5.892;2023-05-14T03:02:43;31.50;;;24.42;;
47337;SDS011;33069;51.970;5.892;2023-05-14T03:05:09;32.58;;;23.27;;
47337;SDS011;33069;51.970;5.892;2023-05-14T03:07:35;33.75;;;25.50;;
47337;SDS011;33069;51.970;5.892;2023-05-14T03:10:00;39.30;;;27.45;;
47337;SDS011;33069;51.970;5.892;2023-05-14T03:12:26;45.45;;;33.90;;
47337;SDS011;33069;51.970;5.892;2023-05-14T03:14:52;35.30;;;27.95;;
47337;SDS011;33069;51.970;5.892;2023-05-14T03:17:18;38.60;;;26.95;;
47337;SDS011;33069;51.970;5.892;2023-05-14T03:19:43;40.53;;;28.75;;
47337;SDS011;33069;51.970;5.892;2023-05-14T03:22:12;34.13;;;28.17;;
47337;SDS011;33069;51.970;5.892;2023-05-14T03:24:38;38.00;;;29.85;;
47337;SDS011;33069;51.970;5.892;2023-05-14T03:27:04;40.33;;;29.00;;
47337;SDS011;33069;51.970;5.892;2023-05-14T03:29:30;36.83;;;27.70;;
47337;SDS011;33069;51.970;5.892;2023-05-14T03:31:56;41.40;;;28.60;;
47337;SDS011;33069;51.970;5.892;2023-05-14T03:34:22;43.90;;;30.88;;
47337;SDS011;33069;51.970;5.892;2023-05-14T03:36:47;45.33;;;32.03;;
47337;SDS011;33069;51.970;5.892;2023-05-14T03:39:13;46.08;;;32.33;;
47337;SDS011;33069;51.970;5.892;2023-05-14T03:41:43;41.47;;;29.35;;
47337;SDS011;33069;51.970;5.892;2023-05-14T03:44:10;42.58;;;31.00;;
47337;SDS011;33069;51.970;5.892;2023-05-14T03:46:37;42.88;;;29.42;;
47337;SDS011;33069;51.970;5.892;2023-05-14T03:49:02;40.80;;;28.92;;
47337;SDS011;33069;51.970;5.892;2023-05-14T03:51:28;46.58;;;28.33;;
47337;SDS011;33069;51.970;5.892;2023-05-14T03:53:54;40.88;;;30.45;;
47337;SDS011;33069;51.970;5.892;2023-05-14T03:56:19;41.38;;;28.98;;
47337;SDS011;33069;51.970;5.892;2023-05-14T03:58:46;35.97;;;30.65;;
47337;SDS011;33069;51.970;5.892;2023-05-14T04:01:12;37.97;;;27.90;;
47337;SDS011;33069;51.970;5.892;2023-05-14T04:03:37;41.90;;;29.55;;
47337;SDS011;33069;51.970;5.892;2023-05-14T04:06:03;38.53;;;28.63;;
47337;SDS011;33069;51.970;5.892;2023-05-14T04:08:29;44.30;;;31.58;;
47337;SDS011;33069;51.970;5.892;2023-05-14T04:10:55;40.97;;;30.08;;
47337;SDS011;33069;51.970;5.892;2023-05-14T04:13:21;44.20;;;29.35;;
47337;SDS011;33069;51.970;5.892;2023-05-14T04:15:46;36.80;;;28.48;;
47337;SDS011;33069;51.970;5.892;2023-05-14T04:18:12;48.22;;;33.60;;
47337;SDS011;33069;51.970;5.892;2023-05-14T04:20:38;43.67;;;31.65;;
47337;SDS011;33069;51.970;5.892;2023-05-14T04:23:04;40.00;;;29.60;;
47337;SDS011;33069;51.970;5.892;2023-05-14T04:25:30;45.72;;;31.00;;
47337;SDS011;33069;51.970;5.892;2023-05-14T04:27:56;51.20;;;34.30;;
47337;SDS011;33069;51.970;5.892;2023-05-14T04:30:22;38.38;;;28.63;;
47337;SDS011;33069;51.970;5.892;2023-05-14T04:32:48;45.17;;;33.05;;
47337;SDS011;33069;51.970;5.892;2023-05-14T04:35:14;45.28;;;32.45;;
47337;SDS011;33069;51.970;5.892;2023-05-14T04:37:39;51.15;;;31.63;;
47337;SDS011;33069;51.970;5.892;2023-05-14T04:40:06;41.72;;;30.08;;
47337;SDS011;33069;51.970;5.892;2023-05-14T04:42:33;42.03;;;30.05;;
47337;SDS011;33069;51.970;5.892;2023-05-14T04:44:58;43.33;;;30.35;;
47337;SDS011;33069;51.970;5.892;2023-05-14T04:47:24;48.45;;;28.50;;
47337;SDS011;33069;51.970;5.892;2023-05-14T04:49:50;41.72;;;29.35;;
47337;SDS011;33069;51.970;5.892;2023-05-14T04:52:16;46.47;;;28.20;;
47337;SDS011;33069;51.970;5.892;2023-05-14T04:54:41;41.88;;;28.55;;
47337;SDS011;33069;51.970;5.892;2023-05-14T04:57:07;43.40;;;29.23;;
47337;SDS011;33069;51.970;5.892;2023-05-14T04:59:33;35.10;;;27.20;;
47337;SDS011;33069;51.970;5.892;2023-05-14T05:01:59;34.10;;;25.58;;
47337;SDS011;33069;51.970;5.892;2023-05-14T05:04:24;39.25;;;27.55;;
47337;SDS011;33069;51.970;5.892;2023-05-14T05:06:51;40.97;;;28.05;;
47337;SDS011;33069;51.970;5.892;2023-05-14T05:09:17;37.88;;;28.52;;
47337;SDS011;33069;51.970;5.892;2023-05-14T05:11:42;31.73;;;26.13;;
47337;SDS011;33069;51.970;5.892;2023-05-14T05:14:08;43.03;;;28.23;;
47337;SDS011;33069;51.970;5.892;2023-05-14T05:19:27;38.70;;;25.27;;
47337;SDS011;33069;51.970;5.892;2023-05-14T05:21:53;36.42;;;26.48;;
47337;SDS011;33069;51.970;5.892;2023-05-14T05:24:19;39.25;;;25.35;;
47337;SDS011;33069;51.970;5.892;2023-05-14T05:26:44;39.90;;;26.55;;
47337;SDS011;33069;51.970;5.892;2023-05-14T05:29:10;37.25;;;25.92;;
47337;SDS011;33069;51.970;5.892;2023-05-14T05:31:36;33.97;;;25.13;;
47337;SDS011;33069;51.970;5.892;2023-05-14T05:34:01;36.67;;;25.98;;
47337;SDS011;33069;51.970;5.892;2023-05-14T05:36:27;37.53;;;24.27;;
47337;SDS011;33069;51.970;5.892;2023-05-14T05:38:53;35.22;;;24.70;;
47337;SDS011;33069;51.970;5.892;2023-05-14T05:41:20;35.53;;;24.55;;
47337;SDS011;33069;51.970;5.892;2023-05-14T05:43:46;35.60;;;24.35;;
47337;SDS011;33069;51.970;5.892;2023-05-14T05:46:12;32.60;;;22.75;;
47337;SDS011;33069;51.970;5.892;2023-05-14T05:48:37;32.50;;;25.08;;
47337;SDS011;33069;51.970;5.892;2023-05-14T05:51:03;33.97;;;24.88;;
47337;SDS011;33069;51.970;5.892;2023-05-14T05:53:29;34.13;;;24.52;;
47337;SDS011;33069;51.970;5.892;2023-05-14T05:55:54;31.63;;;23.17;;
47337;SDS011;33069;51.970;5.892;2023-05-14T05:58:20;33.17;;;22.25;;
47337;SDS011;33069;51.970;5.892;2023-05-14T06:00:46;28.98;;;23.38;;
47337;SDS011;33069;51.970;5.892;2023-05-14T06:03:12;37.63;;;25.42;;
47337;SDS011;33069;51.970;5.892;2023-05-14T06:05:38;32.38;;;25.27;;
47337;SDS011;33069;51.970;5.892;2023-05-14T06:08:04;33.83;;;24.17;;
47337;SDS011;33069;51.970;5.892;2023-05-14T06:10:30;29.02;;;23.25;;
47337;SDS011;33069;51.970;5.892;2023-05-14T06:12:55;33.38;;;23.42;;
47337;SDS011;33069;51.970;5.892;2023-05-14T06:15:21;32.00;;;22.05;;
47337;SDS011;33069;51.970;5.892;2023-05-14T06:17:47;30.65;;;23.83;;
47337;SDS011;33069;51.970;5.892;2023-05-14T06:20:13;26.45;;;20.38;;
47337;SDS011;33069;51.970;5.892;2023-05-14T06:22:39;26.52;;;19.77;;
47337;SDS011;33069;51.970;5.892;2023-05-14T06:25:05;32.35;;;22.38;;
47337;SDS011;33069;51.970;5.892;2023-05-14T06:27:31;26.92;;;21.65;;
47337;SDS011;33069;51.970;5.892;2023-05-14T06:29:56;27.92;;;21.75;;
47337;SDS011;33069;51.970;5.892;2023-05-14T06:32:22;31.05;;;22.20;;
47337;SDS011;33069;51.970;5.892;2023-05-14T06:34:48;29.30;;;20.63;;
47337;SDS011;33069;51.970;5.892;2023-05-14T06:37:14;24.23;;;19.80;;
47337;SDS011;33069;51.970;5.892;2023-05-14T06:39:39;24.70;;;20.90;;
47337;SDS011;33069;51.970;5.892;2023-05-14T06:42:12;27.40;;;20.63;;
47337;SDS011;33069;51.970;5.892;2023-05-14T06:44:37;24.73;;;18.77;;
47337;SDS011;33069;51.970;5.892;2023-05-14T06:47:03;25.88;;;18.33;;
47337;SDS011;33069;51.970;5.892;2023-05-14T06:49:32;26.40;;;18.70;;
47337;SDS011;33069;51.970;5.892;2023-05-14T06:51:58;24.48;;;18.65;;
47337;SDS011;33069;51.970;5.892;2023-05-14T06:54:24;22.95;;;18.13;;
47337;SDS011;33069;51.970;5.892;2023-05-14T06:56:50;22.90;;;17.33;;
47337;SDS011;33069;51.970;5.892;2023-05-14T06:59:16;21.70;;;17.23;;
47337;SDS011;33069;51.970;5.892;2023-05-14T07:01:41;21.75;;;17.83;;
47337;SDS011;33069;51.970;5.892;2023-05-14T07:04:07;22.92;;;17.58;;
47337;SDS011;33069;51.970;5.892;2023-05-14T07:06:33;24.67;;;16.90;;
47337;SDS011;33069;51.970;5.892;2023-05-14T07:08:59;21.85;;;16.27;;
47337;SDS011;33069;51.970;5.892;2023-05-14T07:11:25;21.15;;;15.55;;
47337;SDS011;33069;51.970;5.892;2023-05-14T07:13:51;19.83;;;15.80;;
47337;SDS011;33069;51.970;5.892;2023-05-14T07:16:17;23.40;;;16.55;;
47337;SDS011;33069;51.970;5.892;2023-05-14T07:18:43;22.63;;;16.95;;
47337;SDS011;33069;51.970;5.892;2023-05-14T07:21:10;18.40;;;14.80;;
47337;SDS011;33069;51.970;5.892;2023-05-14T07:23:36;21.35;;;16.15;;
47337;SDS011;33069;51.970;5.892;2023-05-14T07:26:05;25.55;;;16.70;;
47337;SDS011;33069;51.970;5.892;2023-05-14T07:28:33;23.92;;;16.60;;
47337;SDS011;33069;51.970;5.892;2023-05-14T07:30:59;22.45;;;16.05;;
47337;SDS011;33069;51.970;5.892;2023-05-14T07:33:25;18.65;;;14.75;;
47337;SDS011;33069;51.970;5.892;2023-05-14T07:35:51;20.58;;;16.17;;
47337;SDS011;33069;51.970;5.892;2023-05-14T07:38:18;21.52;;;16.23;;
47337;SDS011;33069;51.970;5.892;2023-05-14T07:40:43;19.60;;;15.73;;
47337;SDS011;33069;51.970;5.892;2023-05-14T07:43:09;20.00;;;15.23;;
47337;SDS011;33069;51.970;5.892;2023-05-14T07:45:35;23.67;;;15.38;;
47337;SDS011;33069;51.970;5.892;2023-05-14T07:48:02;20.48;;;15.60;;
47337;SDS011;33069;51.970;5.892;2023-05-14T07:50:27;18.65;;;14.43;;
47337;SDS011;33069;51.970;5.892;2023-05-14T07:52:54;17.67;;;14.00;;
47337;SDS011;33069;51.970;5.892;2023-05-14T07:55:20;16.55;;;13.65;;
47337;SDS011;33069;51.970;5.892;2023-05-14T07:57:45;19.92;;;14.48;;
47337;SDS011;33069;51.970;5.892;2023-05-14T08:00:11;18.73;;;14.35;;
47337;SDS011;33069;51.970;5.892;2023-05-14T08:02:38;16.02;;;14.20;;
47337;SDS011;33069;51.970;5.892;2023-05-14T08:05:03;18.83;;;13.68;;
47337;SDS011;33069;51.970;5.892;2023-05-14T08:07:29;16.13;;;13.68;;
47337;SDS011;33069;51.970;5.892;2023-05-14T08:09:55;16.42;;;13.63;;
47337;SDS011;33069;51.970;5.892;2023-05-14T08:12:21;16.98;;;12.77;;
47337;SDS011;33069;51.970;5.892;2023-05-14T08:14:47;15.85;;;13.45;;
47337;SDS011;33069;51.970;5.892;2023-05-14T08:17:12;14.05;;;12.00;;
47337;SDS011;33069;51.970;5.892;2023-05-14T08:19:38;14.60;;;12.25;;
47337;SDS011;33069;51.970;5.892;2023-05-14T08:22:04;13.52;;;12.02;;
47337;SDS011;33069;51.970;5.892;2023-05-14T08:24:31;14.23;;;11.43;;
47337;SDS011;33069;51.970;5.892;2023-05-14T08:26:56;16.52;;;12.85;;
47337;SDS011;33069;51.970;5.892;2023-05-14T08:29:22;13.85;;;12.13;;
47337;SDS011;33069;51.970;5.892;2023-05-14T08:31:48;17.08;;;12.48;;
47337;SDS011;33069;51.970;5.892;2023-05-14T08:34:15;14.68;;;11.77;;
47337;SDS011;33069;51.970;5.892;2023-05-14T08:36:41;13.27;;;11.77;;
47337;SDS011;33069;51.970;5.892;2023-05-14T08:39:06;13.05;;;11.73;;
47337;SDS011;33069;51.970;5.892;2023-05-14T08:41:32;14.55;;;13.00;;
47337;SDS011;33069;51.970;5.892;2023-05-14T08:44:03;17.75;;;14.00;;
47337;SDS011;33069;51.970;5.892;2023-05-14T08:46:33;14.95;;;13.43;;
47337;SDS011;33069;51.970;5.892;2023-05-14T08:49:45;19.17;;;13.10;;
47337;SDS011;33069;51.970;5.892;2023-05-14T08:51:50;16.00;;;13.07;;
47337;SDS011;33069;51.970;5.892;2023-05-14T08:54:17;13.90;;;12.48;;
47337;SDS011;33069;51.970;5.892;2023-05-14T08:56:43;13.48;;;12.20;;
47337;SDS011;33069;51.970;5.892;2023-05-14T08:59:12;12.25;;;10.93;;
47337;SDS011;33069;51.970;5.892;2023-05-14T09:01:38;14.20;;;12.18;;
47337;SDS011;33069;51.970;5.892;2023-05-14T09:04:06;12.40;;;11.20;;
47337;SDS011;33069;51.970;5.892;2023-05-14T09:06:36;11.85;;;10.75;;
47337;SDS011;33069;51.970;5.892;2023-05-14T09:09:02;10.65;;;9.65;;
47337;SDS011;33069;51.970;5.892;2023-05-14T09:11:28;11.00;;;9.93;;
47337;SDS011;33069;51.970;5.892;2023-05-14T09:13:54;10.00;;;9.10;;
47337;SDS011;33069;51.970;5.892;2023-05-14T09:16:20;10.65;;;8.80;;
47337;SDS011;33069;51.970;5.892;2023-05-14T09:18:46;10.85;;;9.18;;
47337;SDS011;33069;51.970;5.892;2023-05-14T09:21:16;11.77;;;8.90;;
47337;SDS011;33069;51.970;5.892;2023-05-14T09:23:42;10.88;;;8.20;;
47337;SDS011;33069;51.970;5.892;2023-05-14T09:26:09;9.80;;;8.90;;
47337;SDS011;33069;51.970;5.892;2023-05-14T09:28:39;10.90;;;8.77;;
47337;SDS011;33069;51.970;5.892;2023-05-14T09:31:08;10.27;;;9.38;;
47337;SDS011;33069;51.970;5.892;2023-05-14T09:33:34;11.60;;;9.10;;
47337;SDS011;33069;51.970;5.892;2023-05-14T09:36:00;11.57;;;9.63;;
47337;SDS011;33069;51.970;5.892;2023-05-14T09:38:31;10.00;;;8.40;;
47337;SDS011;33069;51.970;5.892;2023-05-14T09:40:57;17.52;;;8.93;;
47337;SDS011;33069;51.970;5.892;2023-05-14T09:43:24;8.57;;;7.85;;
47337;SDS011;33069;51.970;5.892;2023-05-14T09:45:51;10.05;;;8.95;;
47337;SDS011;33069;51.970;5.892;2023-05-14T09:48:17;9.60;;;8.70;;
47337;SDS011;33069;51.970;5.892;2023-05-14T09:50:43;10.20;;;9.20;;
47337;SDS011;33069;51.970;5.892;2023-05-14T09:53:22;9.88;;;8.70;;
47337;SDS011;33069;51.970;5.892;2023-05-14T09:55:48;9.75;;;8.65;;
47337;SDS011;33069;51.970;5.892;2023-05-14T10:01:37;9.73;;;8.93;;
47337;SDS011;33069;51.970;5.892;2023-05-14T10:04:05;9.57;;;8.73;;
47337;SDS011;33069;51.970;5.892;2023-05-14T10:06:45;11.35;;;9.07;;
47337;SDS011;33069;51.970;5.892;2023-05-14T10:09:14;9.98;;;8.98;;
47337;SDS011;33069;51.970;5.892;2023-05-14T10:11:46;10.07;;;9.05;;
47337;SDS011;33069;51.970;5.892;2023-05-14T10:14:17;10.40;;;9.45;;
47337;SDS011;33069;51.970;5.892;2023-05-14T10:16:49;10.07;;;9.07;;
47337;SDS011;33069;51.970;5.892;2023-05-14T10:19:16;12.73;;;9.25;;
47337;SDS011;33069;51.970;5.892;2023-05-14T10:21:44;10.95;;;9.85;;
47337;SDS011;33069;51.970;5.892;2023-05-14T10:24:17;17.23;;;10.10;;
47337;SDS011;33069;51.970;5.892;2023-05-14T10:26:44;11.15;;;9.93;;
47337;SDS011;33069;51.970;5.892;2023-05-14T10:29:10;11.50;;;10.05;;
47337;SDS011;33069;51.970;5.892;2023-05-14T10:31:53;9.93;;;9.23;;
47337;SDS011;33069;51.970;5.892;2023-05-14T10:34:38;10.38;;;9.50;;
47337;SDS011;33069;51.970;5.892;2023-05-14T10:37:06;10.98;;;9.80;;
47337;SDS011;33069;51.970;5.892;2023-05-14T10:42:34;11.10;;;10.30;;
47337;SDS011;33069;51.970;5.892;2023-05-14T10:45:07;10.52;;;9.77;;
47337;SDS011;33069;51.970;5.892;2023-05-14T10:47:39;12.20;;;10.25;;
47337;SDS011;33069;51.970;5.892;2023-05-14T10:50:09;10.75;;;9.85;;
47337;SDS011;33069;51.970;5.892;2023-05-14T10:52:36;11.10;;;10.20;;
47337;SDS011;33069;51.970;5.892;2023-05-14T10:55:03;10.75;;;9.75;;
47337;SDS011;33069;51.970;5.892;2023-05-14T10:57:35;10.65;;;9.60;;
47337;SDS011;33069;51.970;5.892;2023-05-14T11:00:02;12.23;;;10.40;;
47337;SDS011;33069;51.970;5.892;2023-05-14T11:02:35;11.85;;;10.40;;
47337;SDS011;33069;51.970;5.892;2023-05-14T11:05:03;10.90;;;9.80;;
47337;SDS011;33069;51.970;5.892;2023-05-14T11:07:33;12.75;;;9.90;;
47337;SDS011;33069;51.970;5.892;2023-05-14T11:12:39;11.02;;;9.95;;
47337;SDS011;33069;51.970;5.892;2023-05-14T11:15:07;11.05;;;9.55;;
47337;SDS011;33069;51.970;5.892;2023-05-14T11:17:34;10.52;;;9.73;;
47337;SDS011;33069;51.970;5.892;2023-05-14T11:20:00;11.88;;;10.68;;
47337;SDS011;33069;51.970;5.892;2023-05-14T11:22:27;11.60;;;10.50;;
47337;SDS011;33069;51.970;5.892;2023-05-14T11:24:53;11.45;;;10.45;;
47337;SDS011;33069;51.970;5.892;2023-05-14T11:27:19;11.60;;;10.35;;
47337;SDS011;33069;51.970;5.892;2023-05-14T11:29:47;12.40;;;11.15;;
47337;SDS011;33069;51.970;5.892;2023-05-14T11:32:13;10.15;;;9.35;;
47337;SDS011;33069;51.970;5.892;2023-05-14T11:34:41;12.38;;;11.20;;
47337;SDS011;33069;51.970;5.892;2023-05-14T11:37:11;14.63;;;13.35;;
47337;SDS011;33069;51.970;5.892;2023-05-14T11:39:39;14.40;;;13.02;;
47337;SDS011;33069;51.970;5.892;2023-05-14T11:42:11;14.77;;;13.48;;
47337;SDS011;33069;51.970;5.892;2023-05-14T11:44:39;14.70;;;13.20;;
47337;SDS011;33069;51.970;5.892;2023-05-14T11:47:05;14.63;;;13.18;;
47337;SDS011;33069;51.970;5.892;2023-05-14T11:49:31;15.02;;;13.57;;
47337;SDS011;33069;51.970;5.892;2023-05-14T11:52:03;14.32;;;12.57;;
47337;SDS011;33069;51.970;5.892;2023-05-14T11:54:31;14.43;;;12.95;;
47337;SDS011;33069;51.970;5.892;2023-05-14T11:56:58;15.00;;;13.60;;
47337;SDS011;33069;51.970;5.892;2023-05-14T11:59:27;12.60;;;11.60;;
47337;SDS011;33069;51.970;5.892;2023-05-14T12:01:55;12.98;;;11.70;;
47337;SDS011;33069;51.970;5.892;2023-05-14T12:04:21;14.13;;;12.65;;
47337;SDS011;33069;51.970;5.892;2023-05-14T12:06:47;15.07;;;13.65;;
47337;SDS011;33069;51.970;5.892;2023-05-14T12:09:17;13.00;;;11.90;;
47337;SDS011;33069;51.970;5.892;2023-05-14T12:11:44;15.25;;;12.50;;
47337;SDS011;33069;51.970;5.892;2023-05-14T12:14:13;12.60;;;11.40;;
47337;SDS011;33069;51.970;5.892;2023-05-14T12:16:40;11.70;;;10.73;;
47337;SDS011;33069;51.970;5.892;2023-05-14T12:19:08;12.27;;;11.38;;
47337;SDS011;33069;51.970;5.892;2023-05-14T12:21:35;12.60;;;11.55;;
47337;SDS011;33069;51.970;5.892;2023-05-14T12:24:01;13.45;;;12.18;;
47337;SDS011;33069;51.970;5.892;2023-05-14T12:26:30;15.38;;;13.80;;
47337;SDS011;33069;51.970;5.892;2023-05-14T12:29:01;15.98;;;14.43;;
47337;SDS011;33069;51.970;5.892;2023-05-14T12:31:31;11.25;;;10.30;;
47337;SDS011;33069;51.970;5.892;2023-05-14T12:33:58;11.75;;;10.02;;
47337;SDS011;33069;51.970;5.892;2023-05-14T12:36:24;12.45;;;9.90;;
47337;SDS011;33069;51.970;5.892;2023-05-14T12:38:58;11.20;;;10.10;;
47337;SDS011;33069;51.970;5.892;2023-05-14T12:41:25;11.57;;;10.60;;
47337;SDS011;33069;51.970;5.892;2023-05-14T12:43:51;13.15;;;11.82;;
47337;SDS011;33069;51.970;5.892;2023-05-14T12:46:17;14.35;;;12.00;;
47337;SDS011;33069;51.970;5.892;2023-05-14T12:48:43;12.65;;;11.38;;
47337;SDS011;33069;51.970;5.892;2023-05-14T12:51:10;14.95;;;12.40;;
47337;SDS011;33069;51.970;5.892;2023-05-14T12:53:36;12.35;;;11.18;;
47337;SDS011;33069;51.970;5.892;2023-05-14T12:56:02;12.60;;;11.20;;
47337;SDS011;33069;51.970;5.892;2023-05-14T12:58:27;13.57;;;11.10;;
47337;SDS011;33069;51.970;5.892;2023-05-14T13:00:53;13.07;;;11.50;;
47337;SDS011;33069;51.970;5.892;2023-05-14T13:03:19;14.20;;;13.00;;
47337;SDS011;33069;51.970;5.892;2023-05-14T13:05:45;14.70;;;13.27;;
47337;SDS011;33069;51.970;5.892;2023-05-14T13:08:10;15.35;;;13.88;;
47337;SDS011;33069;51.970;5.892;2023-05-14T13:10:39;13.65;;;12.55;;
47337;SDS011;33069;51.970;5.892;2023-05-14T13:13:04;15.30;;;13.20;;
47337;SDS011;33069;51.970;5.892;2023-05-14T13:15:30;14.10;;;12.25;;
47337;SDS011;33069;51.970;5.892;2023-05-14T13:17:57;17.65;;;12.48;;
47337;SDS011;33069;51.970;5.892;2023-05-14T13:20:23;14.35;;;12.25;;
47337;SDS011;33069;51.970;5.892;2023-05-14T13:22:51;14.82;;;11.82;;
47337;SDS011;33069;51.970;5.892;2023-05-14T13:25:16;14.18;;;12.90;;
47337;SDS011;33069;51.970;5.892;2023-05-14T13:27:42;13.32;;;11.90;;
47337;SDS011;33069;51.970;5.892;2023-05-14T13:30:08;15.27;;;11.73;;
47337;SDS011;33069;51.970;5.892;2023-05-14T13:32:34;12.00;;;10.93;;
47337;SDS011;33069;51.970;5.892;2023-05-14T13:35:00;12.07;;;11.07;;
47337;SDS011;33069;51.970;5.892;2023-05-14T13:37:25;18.45;;;12.70;;
47337;SDS011;33069;51.970;5.892;2023-05-14T13:39:52;11.95;;;10.80;;
47337;SDS011;33069;51.970;5.892;2023-05-14T13:42:18;13.55;;;12.20;;
47337;SDS011;33069;51.970;5.892;2023-05-14T13:44:43;14.15;;;12.00;;
47337;SDS011;33069;51.970;5.892;2023-05-14T13:47:09;16.17;;;12.48;;
47337;SDS011;33069;51.970;5.892;2023-05-14T13:49:35;14.98;;;12.18;;
47337;SDS011;33069;51.970;5.892;2023-05-14T13:52:01;13.70;;;12.38;;
47337;SDS011;33069;51.970;5.892;2023-05-14T13:54:27;13.68;;;12.32;;
47337;SDS011;33069;51.970;5.892;2023-05-14T13:56:53;13.75;;;12.30;;
47337;SDS011;33069;51.970;5.892;2023-05-14T13:59:19;13.20;;;11.88;;
47337;SDS011;33069;51.970;5.892;2023-05-14T14:01:45;12.98;;;11.98;;
47337;SDS011;33069;51.970;5.892;2023-05-14T14:04:12;14.15;;;12.13;;
47337;SDS011;33069;51.970;5.892;2023-05-14T14:06:40;13.20;;;11.70;;
47337;SDS011;33069;51.970;5.892;2023-05-14T14:09:06;14.68;;;12.65;;
47337;SDS011;33069;51.970;5.892;2023-05-14T14:11:31;13.00;;;11.80;;
47337;SDS011;33069;51.970;5.892;2023-05-14T14:13:57;12.75;;;11.65;;
47337;SDS011;33069;51.970;5.892;2023-05-14T14:16:23;12.95;;;11.57;;
47337;SDS011;33069;51.970;5.892;2023-05-14T14:18:49;12.90;;;11.85;;
47337;SDS011;33069;51.970;5.892;2023-05-14T14:21:14;14.30;;;12.80;;
47337;SDS011;33069;51.970;5.892;2023-05-14T14:23:45;12.98;;;11.98;;
47337;SDS011;33069;51.970;5.892;2023-05-14T14:26:11;13.95;;;12.50;;
47337;SDS011;33069;51.970;5.892;2023-05-14T14:28:37;13.57;;;12.27;;
47337;SDS011;33069;51.970;5.892;2023-05-14T14:31:04;13.43;;;12.43;;
47337;SDS011;33069;51.970;5.892;2023-05-14T14:33:30;14.02;;;12.57;;
47337;SDS011;33069;51.970;5.892;2023-05-14T14:35:56;13.45;;;12.25;;